| time (UTC) | temp C | wind direction | speed KPH | gust KPH | rain 1hr cm | rain 24hr cm | rain mn cm | humidity % | barometer mb |
| 20260505010340 | 22 | 224 | 3.2 | 12.9 | 0.00 | 0.00 | 0.00 | 52 | 1005.5 |
| 20260505005327 | 22 | 224 | 3.2 | 14.5 | 0.00 | 0.00 | 0.00 | 51 | 1005.4 |
| 20260505004351 | 22 | 221 | 6.4 | 14.5 | 0.00 | 0.00 | 0.00 | 49 | 1005.3 |
| 20260505003316 | 22 | 226 | 6.4 | 20.9 | 0.00 | 0.00 | 0.00 | 48 | 1005.3 |
| 20260505002342 | 22 | 203 | 9.7 | 20.9 | 0.00 | 0.00 | 0.00 | 47 | 1005.4 |
| 20260505001327 | 23 | 127 | 4.8 | 19.3 | 0.00 | 0.00 | 0.00 | 48 | 1005.5 |
| 20260505000332 | 23 | 146 | 9.7 | 20.9 | 0.00 | 0.00 | 0.00 | 46 | 1005.6 |
| 20260504235317 | 23 | 212 | 11.3 | 22.5 | 0.00 | 0.00 | 0.00 | 48 | 1005.8 |
| 20260504234321 | 23 | 253 | 4.8 | 14.5 | 0.00 | 0.00 | 0.00 | 51 | 1005.7 |
| 20260504233331 | 23 | 200 | 8.0 | 16.1 | 0.00 | 0.00 | 0.00 | 51 | 1005.9 |
| 20260504232317 | 23 | 221 | 1.6 | 11.3 | 0.00 | 0.00 | 0.00 | 50 | 1005.9 |
| 20260504231322 | 23 | 149 | 3.2 | 11.3 | 0.00 | 0.00 | 0.00 | 50 | 1005.9 |
| 20260504230328 | 23 | 136 | 4.8 | 14.5 | 0.00 | 0.00 | 0.00 | 50 | 1005.9 |
| 20260504225331 | 23 | 221 | 6.4 | 14.5 | 0.00 | 0.00 | 0.00 | 48 | 1006.1 |
| 20260504224318 | 23 | 135 | 4.8 | 17.7 | 0.00 | 0.00 | 0.00 | 49 | 1006.4 |
| 20260504223343 | 23 | 215 | 8.0 | 19.3 | 0.00 | 0.00 | 0.00 | 49 | 1006.6 |
| 20260504222330 | 23 | 207 | 4.8 | 11.3 | 0.00 | 0.00 | 0.00 | 50 | 1006.6 |
| 20260504221314 | 23 | 154 | 4.8 | 11.3 | 0.00 | 0.00 | 0.00 | 50 | 1006.4 |
| 20260504220322 | 22 | 197 | 4.8 | 14.5 | 0.00 | 0.00 | 0.00 | 52 | 1006.6 |
| 20260504215325 | 22 | 221 | 4.8 | 14.5 | 0.00 | 0.00 | 0.00 | 52 | 1006.5 |
| 20260504214328 | 22 | 223 | 6.4 | 16.1 | 0.00 | 0.00 | 0.00 | 52 | 1006.8 |
| 20260504213354 | 22 | 174 | 6.4 | 25.7 | 0.00 | 0.00 | 0.00 | 51 | 1007.1 |
| 20260504212319 | 22 | 235 | 9.7 | 25.7 | 0.00 | 0.00 | 0.00 | 51 | 1007.1 |
| 20260504211322 | 22 | 247 | 8.0 | 22.5 | 0.00 | 0.00 | 0.00 | 54 | 1007.1 |
| 20260504210332 | 21 | 130 | 8.0 | 14.5 | 0.00 | 0.00 | 0.00 | 55 | 1007.3 |
| 20260504205314 | 21 | 203 | 3.2 | 14.5 | 0.00 | 0.00 | 0.00 | 58 | 1007.3 |
| 20260504204339 | 21 | 147 | 6.4 | 14.5 | 0.00 | 0.00 | 0.00 | 58 | 1007.3 |
| 20260504203323 | 20 | 194 | 8.0 | 19.3 | 0.00 | 0.00 | 0.00 | 59 | 1008.0 |
| 20260504202346 | 20 | 232 | 6.4 | 16.1 | 0.00 | 0.00 | 0.00 | 61 | 1008.2 |
| 20260504201330 | 20 | 233 | 9.7 | 16.1 | 0.00 | 0.00 | 0.00 | 62 | 1008.4 |
| 20260504200334 | 20 | 228 | 8.0 | 14.5 | 0.00 | 0.00 | 0.00 | 65 | 1008.4 |
| 20260504195337 | 19 | 231 | 8.0 | 12.9 | 0.00 | 0.00 | 0.00 | 66 | 1008.3 |
| 20260504194321 | 19 | 217 | 4.8 | 12.9 | 0.00 | 0.00 | 0.00 | 65 | 1008.2 |
| 20260504193326 | 19 | 260 | 3.2 | 16.1 | 0.00 | 0.00 | 0.00 | 65 | 1008.3 |
| 20260504192328 | 19 | 235 | 8.0 | 12.9 | 0.00 | 0.00 | 0.00 | 64 | 1008.8 |
| 20260504191329 | 19 | 198 | 6.4 | 16.1 | 0.00 | 0.00 | 0.00 | 64 | 1009.0 |
| 20260504190315 | 20 | 209 | 8.0 | 24.1 | 0.00 | 0.00 | 0.00 | 64 | 1009.5 |
| 20260504185320 | 21 | 226 | 12.9 | 20.9 | 0.00 | 0.00 | 0.00 | 59 | 1009.6 |
| 20260504184330 | 21 | 248 | 16.1 | 29.0 | 0.00 | 0.00 | 0.00 | 57 | 1009.1 |
| 20260504183334 | 21 | 215 | 11.3 | 24.1 | 0.00 | 0.00 | 0.00 | 57 | 1009.2 |
| 20260504182337 | 21 | 233 | 9.7 | 19.3 | 0.00 | 0.00 | 0.00 | 56 | 1008.6 |
| 20260504180324 | 21 | 206 | 9.7 | 22.5 | 0.00 | 0.00 | 0.00 | 57 | 1008.5 |
| 20260504175349 | 21 | 193 | 8.0 | 17.7 | 0.00 | 0.00 | 0.00 | 55 | 1008.2 |
| 20260504174335 | 21 | 233 | 6.4 | 19.3 | 0.00 | 0.00 | 0.00 | 58 | 1008.4 |
| 20260504173319 | 20 | 250 | 8.0 | 19.3 | 0.00 | 0.00 | 0.00 | 58 | 1008.5 |
| 20260504172342 | 20 | 213 | 4.8 | 22.5 | 0.00 | 0.00 | 0.00 | 57 | 1008.6 |
| 20260504171329 | 20 | 220 | 11.3 | 17.7 | 0.00 | 0.00 | 0.00 | 56 | 1008.8 |
| 20260504170315 | 20 | 240 | 8.0 | 19.3 | 0.00 | 0.00 | 0.00 | 57 | 1008.8 |
| 20260504160325 | 19 | 205 | 6.4 | 19.3 | 0.00 | 0.00 | 0.00 | 58 | 1009.2 |
| 20260504150319 | 17 | 250 | 4.8 | 16.1 | 0.00 | 0.00 | 0.00 | 60 | 1009.6 |
| 20260504141328 | 16 | 146 | 4.8 | 14.5 | 0.00 | 0.00 | 0.00 | 63 | 1009.8 |
| 20260504140315 | 16 | 229 | 8.0 | 19.3 | 0.00 | 0.00 | 0.00 | 64 | 1010.1 |
| 20260504130329 | 13 | 135 | 3.2 | 11.3 | 0.00 | 0.00 | 0.00 | 67 | 1010.2 |
| 20260504110338 | 9 | 189 | 0.0 | 4.8 | 0.00 | 0.00 | 0.00 | 73 | 1010.3 |
| 20260504100334 | 8 | 224 | 0.0 | 1.6 | 0.00 | 0.00 | 0.00 | 74 | 1010.4 |
| 20260504081333 | 8 | 141 | 0.0 | 0.0 | 0.00 | 0.00 | 0.00 | 73 | 1011.1 |
| 20260504080319 | 8 | 141 | 0.0 | 0.0 | 0.00 | 0.00 | 0.00 | 71 | 1011.2 |
| 20260504070334 | 9 | 172 | 0.0 | 1.6 | 0.00 | 0.00 | 0.00 | 69 | 1011.4 |
| 20260504050324 | 11 | 160 | 1.6 | 4.8 | 0.00 | 0.00 | 0.00 | 60 | 1012.8 |
| 20260504045328 | 11 | 186 | 0.0 | 4.8 | 0.00 | 0.00 | 0.00 | 60 | 1012.8 |
| 20260504044353 | 12 | 204 | 0.0 | 8.0 | 0.00 | 0.00 | 0.00 | 59 | 1012.8 |
| 20260504043319 | 12 | 186 | 0.0 | 4.8 | 0.00 | 0.00 | 0.00 | 58 | 1012.9 |
| 20260504042345 | 12 | 186 | 1.6 | 8.0 | 0.00 | 0.00 | 0.00 | 57 | 1013.0 |
| 20260504041328 | 12 | 217 | 1.6 | 4.8 | 0.00 | 0.00 | 0.00 | 58 | 1013.0 |
| 20260504040314 | 12 | 170 | 1.6 | 8.0 | 0.00 | 0.00 | 0.00 | 57 | 1013.2 |
| 20260504035339 | 12 | 191 | 0.0 | 6.4 | 0.00 | 0.00 | 0.00 | 58 | 1013.2 |
| 20260504034321 | 12 | 122 | 1.6 | 6.4 | 0.00 | 0.00 | 0.00 | 58 | 1013.3 |
| 20260504033348 | 12 | 193 | 0.0 | 3.2 | 0.00 | 0.00 | 0.00 | 59 | 1013.4 |
| 20260504032335 | 12 | 163 | 0.0 | 6.4 | 0.00 | 0.00 | 0.00 | 60 | 1013.4 |
| 20260504031317 | 11 | 188 | 3.2 | 8.0 | 0.00 | 0.00 | 0.00 | 62 | 1013.5 |
| 20260504030344 | 10 | 81 | 0.0 | 1.6 | 0.00 | 0.00 | 0.00 | 75 | 1013.6 |
| 20260504025326 | 10 | 49 | 0.0 | 0.0 | 0.00 | 0.00 | 0.00 | 78 | 1013.6 |
| 20260504024331 | 10 | 49 | 0.0 | 0.0 | 0.00 | 0.00 | 0.00 | 78 | 1013.7 |
| 20260504023317 | 10 | 49 | 0.0 | 0.0 | 0.00 | 0.00 | 0.00 | 78 | 1013.8 |
| 20260504022322 | 10 | 49 | 0.0 | 0.0 | 0.00 | 0.00 | 0.00 | 77 | 1013.8 |
| 20260504021324 | 10 | 49 | 0.0 | 0.0 | 0.00 | 0.00 | 0.00 | 76 | 1013.8 |
| 20260504020333 | 10 | 49 | 0.0 | 0.0 | 0.00 | 0.00 | 0.00 | 76 | 1013.9 |
| 20260504015319 | 10 | 49 | 0.0 | 0.0 | 0.00 | 0.00 | 0.00 | 77 | 1013.8 |
| 20260504014322 | 10 | 49 | 0.0 | 0.0 | 0.00 | 0.00 | 0.00 | 75 | 1013.7 |
| 20260504013328 | 10 | 49 | 0.0 | 0.0 | 0.00 | 0.00 | 0.00 | 74 | 1013.7 |
| 20260504012352 | 11 | 49 | 0.0 | 0.0 | 0.00 | 0.00 | 0.00 | 72 | 1013.5 |
| 20260504011315 | 11 | 49 | 0.0 | 1.6 | 0.00 | 0.00 | 0.00 | 72 | 1013.6 |